LYBE/BEG METAR and TAF weather

Enter ICAO airport designator
Station Type Date Time Source
LYBE METAR 2021/10/20 06:00 UTC NOAA

LYBE 200600Z 31003KT 1800 MIFG BR NSC 05/04 Q1026 TEMPO 0700 FG


Station Type Date Time Source
LYBE Decoded METAR 2021/10/20 06:00 UTC NOAA

Beograd / Surcin, Serbia and Montenegro (LYBE) 44-49N 020-17E 99M
Oct 20, 2021 - 02:00 AM EDT / 2021.10.20 0600 UTC
Wind: from the NW (310 degrees) at 3 MPH (3 KT):0
Visibility: 1 mile(s):0
Weather: shallow fog; mist
Temperature: 41 F (5 C)
Dew Point: 39 F (4 C)
Relative Humidity: 93%
Pressure (altimeter): 30.30 in. Hg (1026 hPa)
ob: LYBE 200600Z 31003KT 1800 MIFG BR NSC 05/04 Q1026 TEMPO 0700 FG
cycle: 6

Station Type Date Time Source
LYBE TAF 2021/10/20 06:25 UTC NOAA

TAF LYBE 200500Z 2006/2106 14005KT 3000 BR NSC TX21/2013Z TN05/2006Z
TEMPO 2006/2007 0700 FG
BECMG 2006/2008 8000 NSC

Example: see airport list